Aeroporto :
LOGIN :

Iscrizione | Disclaimer

   EN    FR    IT 

 










Sommario :    VFR   VFR Marginale   IFR   IFR Intensivo   IFR Molto Intensivo
Visibilità : 
Base nubi : 
>= 8 km
>= 3000ft
5 / 8 km
1000 / 3000 ft
1500m / 5 km
500 / 1000 ft
800 / 1500m
200 / 500 ft
< 800m
< 200 ft
Simboli :   Temporali  Nebbia  Neve Forte  Precipitazioni Forti  Vento > 20 kt
SIGMETs :   Varie  Temporali  Ghiacco  Turbolenza  Onda orograficha  Ceneri Vulcaniche






- Altitudine del aeroporto : 197 ft
- Codice IATA : XOG


LFMO - Orange

ULTIMO METAR :
  • 170700Z AUTO 29004KT 250V330 CAVOK 01/01 Q1006 TEMPO 0500 FG VV///

METARs OBSOLETI :
  • 170630Z AUTO 29005KT 5000 BR FEW002 01/01 Q1005 TEMPO 0500 FG VV///
  • 170600Z AUTO 30005KT 2900 BR VV/// 01/01 Q1005 TEMPO 0500 FG
  • 170530Z AUTO 30007KT 1500 1000 R14/1300D BR VV/// 01/01 Q1006 TEMPO 0500 FG
  • 170500Z AUTO 27004KT 0650 0450 R14/0800U FG VV/// 01/01 Q1006 TEMPO 0500 FG
  • 170430Z AUTO VRB02KT 5000 BR BKN003 01/00 Q1006 TEMPO 0500 FG BECMG VV///

TAF TAF LFMO
Valido dal 17 a 03 ore il 18 a 03 ore UTC


170200Z 1703/1803 VRB02KT 2500 BR VV///
TEMPO 1703/1708 0500 FG
TEMPO 1703/1706 FZFG
BECMG 1708/1710 CAVOK



MetMap, La meteo Aeronautica in un colpo d'occhio ! - Copyright ORBIFLY Dicembre 2007 - Disclaimer

ORBIFLY MET'MAP TEAM :

Programmazione e sviluppo : Alexandra Zaïnal
Concezione e sviluppo : Baudouin d'Aumeries
Co-Programmazione e sviluppo : Marc-Olivier Méhu
Supporto tecnico e logistico : Manuel Goepfert
Aiuto per la traduzione : Arnaldo La Scala

Contatto : metmap@orbifly.com




FONTI E CREDITI :

   NOAA